Terminal Aerodrome Forecast
Issued by NWS Bismarck, ND

Home | Current Version | Previous Version | Graphics & Text | Print | Product List | Glossary On
Versions: 1 2 3 4 5 6 7 8 9 10 11 12 13 14 15 16
751
FTUS43 KBIS 171139
TAFISN
TAF
KISN 171139Z 1712/1812 15006KT P6SM SKC WS020/30040KT
     FM171600 25012KT P6SM FEW250
     FM180300 25008KT P6SM SCT250
     FM180800 22006KT P6SM SCT250=

USA.gov is the U.S. government's official web portal to all federal, state and local government web resources and services.